sensor_id;sensor_type;location;lat;lon;timestamp;pressure;altitude;pressure_sealevel;temperature;humidity
19576;BME280;41589;51.196;7.074;2023-03-21T00:00:08;99075.34;;;12.20;51.45
19576;BME280;41589;51.196;7.074;2023-03-21T00:05:10;99065.13;;;12.22;51.48
19576;BME280;41589;51.196;7.074;2023-03-21T00:10:10;99059.03;;;12.14;51.63
19576;BME280;41589;51.196;7.074;2023-03-21T00:15:11;99054.66;;;12.13;51.83
19576;BME280;41589;51.196;7.074;2023-03-21T00:20:11;99046.66;;;12.12;51.82
19576;BME280;41589;51.196;7.074;2023-03-21T00:25:13;99050.75;;;12.11;52.16
19576;BME280;41589;51.196;7.074;2023-03-21T00:30:14;99046.66;;;12.12;51.95
19576;BME280;41589;51.196;7.074;2023-03-21T00:35:15;99038.50;;;12.14;52.07
19576;BME280;41589;51.196;7.074;2023-03-21T00:40:16;99034.72;;;12.17;52.18
19576;BME280;41589;51.196;7.074;2023-03-21T00:45:16;99031.78;;;12.11;52.36
19576;BME280;41589;51.196;7.074;2023-03-21T00:50:18;99034.28;;;12.19;52.20
19576;BME280;41589;51.196;7.074;2023-03-21T00:55:19;99030.50;;;12.12;52.28
19576;BME280;41589;51.196;7.074;2023-03-21T01:00:20;99022.84;;;12.04;52.56
19576;BME280;41589;51.196;7.074;2023-03-21T01:05:26;99009.72;;;12.01;52.51
19576;BME280;41589;51.196;7.074;2023-03-21T01:10:47;99005.16;;;12.03;52.80
19576;BME280;41589;51.196;7.074;2023-03-21T01:15:50;99004.53;;;12.08;52.67
19576;BME280;41589;51.196;7.074;2023-03-21T01:20:54;99007.19;;;12.03;52.82
19576;BME280;41589;51.196;7.074;2023-03-21T01:25:55;99005.31;;;12.09;52.90
19576;BME280;41589;51.196;7.074;2023-03-21T01:30:56;99011.72;;;12.09;52.90
19576;BME280;41589;51.196;7.074;2023-03-21T01:35:57;99000.25;;;12.13;53.07
19576;BME280;41589;51.196;7.074;2023-03-21T01:41:01;99000.56;;;12.15;52.81
19576;BME280;41589;51.196;7.074;2023-03-21T01:51:29;98996.66;;;12.12;53.10
19576;BME280;41589;51.196;7.074;2023-03-21T01:56:35;98993.53;;;12.10;53.19
19576;BME280;41589;51.196;7.074;2023-03-21T02:01:42;98982.75;;;12.00;53.46
19576;BME280;41589;51.196;7.074;2023-03-21T02:06:49;98980.56;;;11.95;54.19
19576;BME280;41589;51.196;7.074;2023-03-21T02:12:01;98970.81;;;12.05;54.11
19576;BME280;41589;51.196;7.074;2023-03-21T02:17:19;98968.19;;;12.01;54.43
19576;BME280;41589;51.196;7.074;2023-03-21T02:22:34;98961.31;;;11.93;54.77
19576;BME280;41589;51.196;7.074;2023-03-21T02:33:21;98957.91;;;11.89;55.29
19576;BME280;41589;51.196;7.074;2023-03-21T02:38:37;98959.91;;;11.98;55.24
19576;BME280;41589;51.196;7.074;2023-03-21T02:43:48;98955.34;;;12.00;55.39
19576;BME280;41589;51.196;7.074;2023-03-21T02:49:01;98953.13;;;12.04;55.25
19576;BME280;41589;51.196;7.074;2023-03-21T02:54:05;98946.69;;;12.04;55.51
19576;BME280;41589;51.196;7.074;2023-03-21T02:59:09;98929.28;;;12.05;55.74
19576;BME280;41589;51.196;7.074;2023-03-21T03:04:21;98938.19;;;12.13;55.74
19576;BME280;41589;51.196;7.074;2023-03-21T03:26:01;98920.25;;;11.92;56.10
19576;BME280;41589;51.196;7.074;2023-03-21T03:31:05;98914.78;;;11.98;56.09
19576;BME280;41589;51.196;7.074;2023-03-21T03:36:12;98905.03;;;11.99;56.11
19576;BME280;41589;51.196;7.074;2023-03-21T03:41:23;98897.75;;;11.83;56.22
19576;BME280;41589;51.196;7.074;2023-03-21T03:46:33;98899.47;;;11.80;56.15
19576;BME280;41589;51.196;7.074;2023-03-21T03:52:16;98896.38;;;11.78;56.28
19576;BME280;41589;51.196;7.074;2023-03-21T03:57:24;98898.69;;;11.80;55.94
19576;BME280;41589;51.196;7.074;2023-03-21T04:02:25;98893.28;;;11.67;56.07
19576;BME280;41589;51.196;7.074;2023-03-21T04:07:27;98901.44;;;11.65;56.10
19576;BME280;41589;51.196;7.074;2023-03-21T04:12:33;98894.84;;;11.68;55.74
19576;BME280;41589;51.196;7.074;2023-03-21T04:17:52;98881.22;;;11.67;56.04
19576;BME280;41589;51.196;7.074;2023-03-21T04:22:53;98895.81;;;11.65;56.30
19576;BME280;41589;51.196;7.074;2023-03-21T04:27:55;98877.00;;;11.62;56.42
19576;BME280;41589;51.196;7.074;2023-03-21T04:33:06;98876.69;;;11.60;56.25
19576;BME280;41589;51.196;7.074;2023-03-21T04:38:08;98868.84;;;11.64;56.18
19576;BME280;41589;51.196;7.074;2023-03-21T04:43:08;98863.97;;;11.65;56.39
19576;BME280;41589;51.196;7.074;2023-03-21T04:48:12;98869.75;;;11.70;56.25
19576;BME280;41589;51.196;7.074;2023-03-21T04:53:14;98860.81;;;11.72;56.18
19576;BME280;41589;51.196;7.074;2023-03-21T04:58:14;98857.53;;;11.73;56.08
19576;BME280;41589;51.196;7.074;2023-03-21T05:03:15;98861.09;;;11.83;56.01
19576;BME280;41589;51.196;7.074;2023-03-21T05:08:18;98859.34;;;11.85;56.03
19576;BME280;41589;51.196;7.074;2023-03-21T05:13:19;98864.03;;;11.89;55.88
19576;BME280;41589;51.196;7.074;2023-03-21T05:18:21;98872.66;;;11.85;55.91
19576;BME280;41589;51.196;7.074;2023-03-21T05:23:36;98859.09;;;11.74;55.95
19576;BME280;41589;51.196;7.074;2023-03-21T05:28:39;98866.47;;;11.72;56.60
19576;BME280;41589;51.196;7.074;2023-03-21T05:33:40;98862.56;;;11.69;56.32
19576;BME280;41589;51.196;7.074;2023-03-21T05:38:40;98853.63;;;11.71;56.02
19576;BME280;41589;51.196;7.074;2023-03-21T05:43:45;98856.75;;;11.73;56.47
19576;BME280;41589;51.196;7.074;2023-03-21T05:48:45;98859.25;;;11.71;56.99
19576;BME280;41589;51.196;7.074;2023-03-21T05:53:48;98851.41;;;11.75;57.19
19576;BME280;41589;51.196;7.074;2023-03-21T05:58:52;98853.63;;;11.71;57.21
19576;BME280;41589;51.196;7.074;2023-03-21T06:03:59;98855.97;;;11.72;57.63
19576;BME280;41589;51.196;7.074;2023-03-21T06:09:02;98855.44;;;11.83;57.41
19576;BME280;41589;51.196;7.074;2023-03-21T06:14:04;98858.94;;;11.78;57.53
19576;BME280;41589;51.196;7.074;2023-03-21T06:19:05;98859.72;;;11.78;58.09
19576;BME280;41589;51.196;7.074;2023-03-21T06:24:17;98861.31;;;11.70;58.35
19576;BME280;41589;51.196;7.074;2023-03-21T06:29:21;98866.94;;;11.70;58.59
19576;BME280;41589;51.196;7.074;2023-03-21T06:34:33;98858.75;;;11.81;58.81
19576;BME280;41589;51.196;7.074;2023-03-21T06:39:38;98867.69;;;11.80;59.04
19576;BME280;41589;51.196;7.074;2023-03-21T06:44:41;98851.88;;;11.73;59.42
19576;BME280;41589;51.196;7.074;2023-03-21T06:49:46;98855.63;;;11.79;59.61
19576;BME280;41589;51.196;7.074;2023-03-21T06:54:47;98861.72;;;11.87;59.62
19576;BME280;41589;51.196;7.074;2023-03-21T06:59:49;98867.50;;;11.83;59.67
19576;BME280;41589;51.196;7.074;2023-03-21T07:04:53;98864.97;;;11.85;59.53
19576;BME280;41589;51.196;7.074;2023-03-21T07:09:59;98872.53;;;11.79;59.78
19576;BME280;41589;51.196;7.074;2023-03-21T07:15:06;98875.47;;;11.85;59.67
19576;BME280;41589;51.196;7.074;2023-03-21T07:20:08;98882.34;;;11.93;59.60
19576;BME280;41589;51.196;7.074;2023-03-21T07:25:12;98890.28;;;12.04;59.86
19576;BME280;41589;51.196;7.074;2023-03-21T07:30:14;98889.00;;;12.05;59.96
19576;BME280;41589;51.196;7.074;2023-03-21T07:35:16;98896.16;;;11.91;60.20
19576;BME280;41589;51.196;7.074;2023-03-21T07:40:17;98887.97;;;11.93;60.98
19576;BME280;41589;51.196;7.074;2023-03-21T07:45:18;98885.63;;;11.92;61.38
19576;BME280;41589;51.196;7.074;2023-03-21T07:50:22;98884.19;;;11.96;62.01
19576;BME280;41589;51.196;7.074;2023-03-21T07:55:23;98896.63;;;11.90;62.86
19576;BME280;41589;51.196;7.074;2023-03-21T08:00:23;98901.34;;;11.83;63.07
19576;BME280;41589;51.196;7.074;2023-03-21T08:05:26;98893.88;;;12.04;63.74
19576;BME280;41589;51.196;7.074;2023-03-21T08:10:27;98895.34;;;12.24;63.74
19576;BME280;41589;51.196;7.074;2023-03-21T08:15:28;98881.03;;;12.27;63.61
19576;BME280;41589;51.196;7.074;2023-03-21T08:20:29;98876.66;;;12.26;63.97
19576;BME280;41589;51.196;7.074;2023-03-21T08:25:29;98879.19;;;12.24;64.40
19576;BME280;41589;51.196;7.074;2023-03-21T08:30:30;98879.38;;;12.21;64.69
19576;BME280;41589;51.196;7.074;2023-03-21T08:35:30;98879.38;;;12.21;64.80
19576;BME280;41589;51.196;7.074;2023-03-21T08:40:32;98879.81;;;12.28;64.96
19576;BME280;41589;51.196;7.074;2023-03-21T08:45:32;98889.94;;;12.35;65.01
19576;BME280;41589;51.196;7.074;2023-03-21T08:50:32;98883.84;;;12.27;64.84
19576;BME280;41589;51.196;7.074;2023-03-21T08:55:33;98890.66;;;12.21;65.62
19576;BME280;41589;51.196;7.074;2023-03-21T09:00:34;98879.13;;;12.09;65.90
19576;BME280;41589;51.196;7.074;2023-03-21T09:05:35;98880.50;;;12.14;66.34
19576;BME280;41589;51.196;7.074;2023-03-21T09:10:35;98874.84;;;12.14;66.78
19576;BME280;41589;51.196;7.074;2023-03-21T09:15:35;98871.88;;;12.18;66.63
19576;BME280;41589;51.196;7.074;2023-03-21T09:20:36;98861.81;;;12.16;67.18
19576;BME280;41589;51.196;7.074;2023-03-21T09:25:37;98859.91;;;12.23;67.38
19576;BME280;41589;51.196;7.074;2023-03-21T09:30:52;98849.41;;;12.23;67.48
19576;BME280;41589;51.196;7.074;2023-03-21T09:35:55;98871.91;;;12.32;67.06
19576;BME280;41589;51.196;7.074;2023-03-21T10:03:16;98856.63;;;13.01;67.50
19576;BME280;41589;51.196;7.074;2023-03-21T10:08:21;98859.84;;;13.24;66.84
19576;BME280;41589;51.196;7.074;2023-03-21T10:13:34;98856.53;;;13.25;66.23
19576;BME280;41589;51.196;7.074;2023-03-21T10:18:47;98856.03;;;13.27;65.83
19576;BME280;41589;51.196;7.074;2023-03-21T10:23:50;98846.09;;;13.31;65.95
19576;BME280;41589;51.196;7.074;2023-03-21T10:28:51;98843.66;;;13.54;65.49
19576;BME280;41589;51.196;7.074;2023-03-21T10:33:55;98831.44;;;13.63;64.92
19576;BME280;41589;51.196;7.074;2023-03-21T10:39:01;98832.31;;;13.69;64.46
19576;BME280;41589;51.196;7.074;2023-03-21T10:44:10;98819.16;;;13.66;64.10
19576;BME280;41589;51.196;7.074;2023-03-21T10:49:14;98812.41;;;13.78;63.91
19576;BME280;41589;51.196;7.074;2023-03-21T10:54:19;98804.78;;;13.84;63.73
19576;BME280;41589;51.196;7.074;2023-03-21T10:59:37;98801.09;;;13.78;63.39
19576;BME280;41589;51.196;7.074;2023-03-21T11:04:47;98784.34;;;13.74;63.33
19576;BME280;41589;51.196;7.074;2023-03-21T11:09:53;98784.63;;;13.76;63.43
19576;BME280;41589;51.196;7.074;2023-03-21T11:14:56;98767.84;;;13.93;62.81
19576;BME280;41589;51.196;7.074;2023-03-21T11:20:00;98756.69;;;13.84;62.34
19576;BME280;41589;51.196;7.074;2023-03-21T11:25:02;98751.03;;;13.84;62.27
19576;BME280;41589;51.196;7.074;2023-03-21T11:30:20;98755.06;;;13.77;62.27
19576;BME280;41589;51.196;7.074;2023-03-21T11:35:27;98756.06;;;13.74;62.15
19576;BME280;41589;51.196;7.074;2023-03-21T11:40:33;98752.91;;;13.72;62.40
19576;BME280;41589;51.196;7.074;2023-03-21T11:45:34;98746.16;;;13.84;62.11
19576;BME280;41589;51.196;7.074;2023-03-21T11:50:46;98742.81;;;13.86;61.71
19576;BME280;41589;51.196;7.074;2023-03-21T12:06:42;98739.91;;;14.01;61.38
19576;BME280;41589;51.196;7.074;2023-03-21T12:11:51;98729.78;;;13.94;59.86
19576;BME280;41589;51.196;7.074;2023-03-21T12:23:05;98707.31;;;13.65;60.61
19576;BME280;41589;51.196;7.074;2023-03-21T12:33:33;98733.69;;;13.41;61.05
19576;BME280;41589;51.196;7.074;2023-03-21T12:38:43;98722.41;;;13.26;60.90
19576;BME280;41589;51.196;7.074;2023-03-21T12:44:12;98734.63;;;13.18;61.87
19576;BME280;41589;51.196;7.074;2023-03-21T12:54:33;98728.22;;;13.02;63.15
19576;BME280;41589;51.196;7.074;2023-03-21T13:05:09;98700.16;;;13.14;63.14
19576;BME280;41589;51.196;7.074;2023-03-21T13:10:18;98691.38;;;13.12;63.78
19576;BME280;41589;51.196;7.074;2023-03-21T13:25:45;98672.75;;;13.40;62.53
19576;BME280;41589;51.196;7.074;2023-03-21T13:30:46;98667.25;;;13.51;61.67
19576;BME280;41589;51.196;7.074;2023-03-21T13:35:55;98672.34;;;13.47;61.66
19576;BME280;41589;51.196;7.074;2023-03-21T13:41:13;98641.53;;;13.49;61.65
19576;BME280;41589;51.196;7.074;2023-03-21T13:46:35;98638.28;;;13.36;61.63
19576;BME280;41589;51.196;7.074;2023-03-21T14:07:16;98613.88;;;14.00;61.26
19576;BME280;41589;51.196;7.074;2023-03-21T14:12:26;98620.78;;;14.25;60.62
19576;BME280;41589;51.196;7.074;2023-03-21T14:17:30;98617.78;;;14.34;59.49
19576;BME280;41589;51.196;7.074;2023-03-21T14:22:31;98601.97;;;14.22;58.75
19576;BME280;41589;51.196;7.074;2023-03-21T14:27:33;98598.19;;;14.04;59.04
19576;BME280;41589;51.196;7.074;2023-03-21T14:32:34;98603.03;;;13.98;58.48
19576;BME280;41589;51.196;7.074;2023-03-21T14:37:40;98592.88;;;14.12;59.17
19576;BME280;41589;51.196;7.074;2023-03-21T14:42:45;98601.16;;;14.15;58.19
19576;BME280;41589;51.196;7.074;2023-03-21T14:48:07;98602.63;;;14.05;58.31
19576;BME280;41589;51.196;7.074;2023-03-21T14:53:13;98608.38;;;14.16;58.43
19576;BME280;41589;51.196;7.074;2023-03-21T14:58:15;98591.41;;;14.16;57.96
19576;BME280;41589;51.196;7.074;2023-03-21T15:03:19;98589.53;;;14.13;58.02
19576;BME280;41589;51.196;7.074;2023-03-21T15:08:23;98591.84;;;14.09;58.08
19576;BME280;41589;51.196;7.074;2023-03-21T15:13:36;98594.72;;;14.15;58.10
19576;BME280;41589;51.196;7.074;2023-03-21T15:18:39;98567.66;;;14.40;58.07
19576;BME280;41589;51.196;7.074;2023-03-21T15:23:47;98549.75;;;14.54;57.88
19576;BME280;41589;51.196;7.074;2023-03-21T15:28:55;98544.13;;;14.60;57.66
19576;BME280;41589;51.196;7.074;2023-03-21T15:33:55;98547.94;;;14.88;57.37
19576;BME280;41589;51.196;7.074;2023-03-21T15:39:00;98545.41;;;14.96;56.47
19576;BME280;41589;51.196;7.074;2023-03-21T15:54:23;98541.31;;;15.02;56.30
19576;BME280;41589;51.196;7.074;2023-03-21T15:59:26;98552.25;;;15.26;56.14
19576;BME280;41589;51.196;7.074;2023-03-21T16:04:29;98544.00;;;15.28;55.69
19576;BME280;41589;51.196;7.074;2023-03-21T16:09:38;98545.75;;;15.15;54.97
19576;BME280;41589;51.196;7.074;2023-03-21T16:14:41;98546.94;;;14.97;55.44
19576;BME280;41589;51.196;7.074;2023-03-21T16:19:42;98549.16;;;14.76;55.25
19576;BME280;41589;51.196;7.074;2023-03-21T16:24:43;98547.41;;;14.47;56.01
19576;BME280;41589;51.196;7.074;2023-03-21T16:29:43;98542.50;;;14.48;56.00
19576;BME280;41589;51.196;7.074;2023-03-21T16:34:43;98537.09;;;14.50;56.25
19576;BME280;41589;51.196;7.074;2023-03-21T16:39:45;98539.69;;;14.53;56.20
19576;BME280;41589;51.196;7.074;2023-03-21T16:44:45;98530.94;;;14.51;56.10
19576;BME280;41589;51.196;7.074;2023-03-21T16:49:46;98520.63;;;14.48;56.35
19576;BME280;41589;51.196;7.074;2023-03-21T16:54:46;98530.94;;;14.51;56.55
19576;BME280;41589;51.196;7.074;2023-03-21T16:59:47;98530.75;;;14.60;56.28
19576;BME280;41589;51.196;7.074;2023-03-21T17:04:47;98536.34;;;14.49;56.65
19576;BME280;41589;51.196;7.074;2023-03-21T17:09:48;98554.72;;;14.33;56.68
19576;BME280;41589;51.196;7.074;2023-03-21T17:14:48;98561.91;;;14.29;57.13
19576;BME280;41589;51.196;7.074;2023-03-21T17:19:49;98568.28;;;14.24;57.10
19576;BME280;41589;51.196;7.074;2023-03-21T17:24:50;98566.69;;;14.17;57.44
19576;BME280;41589;51.196;7.074;2023-03-21T17:29:50;98581.66;;;14.23;57.53
19576;BME280;41589;51.196;7.074;2023-03-21T17:34:51;98586.56;;;14.23;57.19
19576;BME280;41589;51.196;7.074;2023-03-21T17:39:52;98581.91;;;14.20;57.90
19576;BME280;41589;51.196;7.074;2023-03-21T17:44:52;98571.53;;;14.11;57.67
19576;BME280;41589;51.196;7.074;2023-03-21T17:49:52;98564.66;;;14.17;57.42
19576;BME280;41589;51.196;7.074;2023-03-21T17:54:53;98559.44;;;14.10;57.72
19576;BME280;41589;51.196;7.074;2023-03-21T17:59:53;98558.66;;;14.10;57.71
19576;BME280;41589;51.196;7.074;2023-03-21T18:04:55;98566.38;;;14.09;57.59
19576;BME280;41589;51.196;7.074;2023-03-21T18:09:56;98577.91;;;14.06;57.67
19576;BME280;41589;51.196;7.074;2023-03-21T18:14:57;98564.75;;;14.03;57.69
19576;BME280;41589;51.196;7.074;2023-03-21T18:19:57;98550.59;;;14.03;57.82
19576;BME280;41589;51.196;7.074;2023-03-21T18:24:57;98557.34;;;14.05;57.77
19576;BME280;41589;51.196;7.074;2023-03-21T18:29:58;98562.94;;;14.00;58.00
19576;BME280;41589;51.196;7.074;2023-03-21T18:34:58;98565.81;;;14.05;57.66
19576;BME280;41589;51.196;7.074;2023-03-21T18:39:59;98566.25;;;13.98;57.93
19576;BME280;41589;51.196;7.074;2023-03-21T18:45:00;98571.66;;;13.96;57.81
19576;BME280;41589;51.196;7.074;2023-03-21T18:50:01;98575.75;;;13.95;57.90
19576;BME280;41589;51.196;7.074;2023-03-21T18:55:01;98582.97;;;13.96;58.10
19576;BME280;41589;51.196;7.074;2023-03-21T19:00:07;98588.31;;;13.94;58.32
19576;BME280;41589;51.196;7.074;2023-03-21T19:05:11;98587.56;;;13.94;58.28
19576;BME280;41589;51.196;7.074;2023-03-21T19:10:13;98587.78;;;13.90;58.26
19576;BME280;41589;51.196;7.074;2023-03-21T19:15:14;98584.94;;;13.90;58.26
19576;BME280;41589;51.196;7.074;2023-03-21T19:20:17;98577.00;;;13.94;58.21
19576;BME280;41589;51.196;7.074;2023-03-21T19:25:17;98572.16;;;13.95;57.88
19576;BME280;41589;51.196;7.074;2023-03-21T19:30:18;98569.03;;;13.93;57.83
19576;BME280;41589;51.196;7.074;2023-03-21T19:35:19;98561.03;;;13.91;57.46
19576;BME280;41589;51.196;7.074;2023-03-21T19:40:19;98561.19;;;13.82;57.73
19576;BME280;41589;51.196;7.074;2023-03-21T19:45:20;98558.88;;;13.80;57.51
19576;BME280;41589;51.196;7.074;2023-03-21T19:50:20;98550.91;;;13.79;57.74
19576;BME280;41589;51.196;7.074;2023-03-21T19:55:21;98555.00;;;13.78;57.39
19576;BME280;41589;51.196;7.074;2023-03-21T20:00:22;98545.75;;;13.77;57.18
19576;BME280;41589;51.196;7.074;2023-03-21T20:05:23;98538.03;;;13.78;57.06
19576;BME280;41589;51.196;7.074;2023-03-21T20:10:24;98546.50;;;13.78;56.98
19576;BME280;41589;51.196;7.074;2023-03-21T20:15:26;98564.81;;;13.82;56.00
19576;BME280;41589;51.196;7.074;2023-03-21T20:20:27;98576.56;;;13.75;56.48
19576;BME280;41589;51.196;7.074;2023-03-21T20:25:28;98551.31;;;13.72;56.41
19576;BME280;41589;51.196;7.074;2023-03-21T20:30:28;98547.84;;;13.82;56.29
19576;BME280;41589;51.196;7.074;2023-03-21T20:35:29;98550.13;;;13.78;55.96
19576;BME280;41589;51.196;7.074;2023-03-21T20:40:30;98545.91;;;13.68;55.94
19576;BME280;41589;51.196;7.074;2023-03-21T20:45:31;98545.25;;;13.58;55.84
19576;BME280;41589;51.196;7.074;2023-03-21T20:50:32;98547.19;;;13.47;56.08
19576;BME280;41589;51.196;7.074;2023-03-21T20:55:35;98547.28;;;13.32;56.19
19576;BME280;41589;51.196;7.074;2023-03-21T21:00:35;98537.94;;;13.26;56.48
19576;BME280;41589;51.196;7.074;2023-03-21T21:05:37;98535.59;;;13.24;56.38
19576;BME280;41589;51.196;7.074;2023-03-21T21:10:38;98536.88;;;13.23;56.41
19576;BME280;41589;51.196;7.074;2023-03-21T21:15:38;98528.06;;;13.16;56.35
19576;BME280;41589;51.196;7.074;2023-03-21T21:20:39;98532.16;;;13.15;56.26
19576;BME280;41589;51.196;7.074;2023-03-21T21:25:39;98525.09;;;13.05;56.61
19576;BME280;41589;51.196;7.074;2023-03-21T21:30:39;98531.78;;;13.07;56.77
19576;BME280;41589;51.196;7.074;2023-03-21T21:35:40;98535.63;;;13.04;56.63
19576;BME280;41589;51.196;7.074;2023-03-21T21:40:48;98529.38;;;13.00;56.76
19576;BME280;41589;51.196;7.074;2023-03-21T21:45:49;98525.63;;;12.88;56.93
19576;BME280;41589;51.196;7.074;2023-03-21T21:50:50;98532.78;;;12.84;57.17
19576;BME280;41589;51.196;7.074;2023-03-21T21:55:51;98528.59;;;12.79;56.96
19576;BME280;41589;51.196;7.074;2023-03-21T22:00:51;98526.88;;;12.67;57.27
19576;BME280;41589;51.196;7.074;2023-03-21T22:06:00;98523.00;;;12.64;57.55
19576;BME280;41589;51.196;7.074;2023-03-21T22:11:02;98522.72;;;12.62;57.72
19576;BME280;41589;51.196;7.074;2023-03-21T22:16:03;98527.88;;;12.64;57.79
19576;BME280;41589;51.196;7.074;2023-03-21T22:21:04;98523.09;;;12.70;58.09
19576;BME280;41589;51.196;7.074;2023-03-21T22:26:06;98520.81;;;12.74;57.75
19576;BME280;41589;51.196;7.074;2023-03-21T22:31:12;98520.81;;;12.74;57.92
19576;BME280;41589;51.196;7.074;2023-03-21T22:36:13;98519.28;;;12.73;58.03
19576;BME280;41589;51.196;7.074;2023-03-21T22:41:13;98511.03;;;12.69;57.84
19576;BME280;41589;51.196;7.074;2023-03-21T22:46:13;98516.03;;;12.80;58.19
19576;BME280;41589;51.196;7.074;2023-03-21T22:51:14;98514.34;;;12.88;57.99
19576;BME280;41589;51.196;7.074;2023-03-21T22:56:14;98511.22;;;12.86;57.72
19576;BME280;41589;51.196;7.074;2023-03-21T23:01:14;98517.94;;;12.89;57.78
19576;BME280;41589;51.196;7.074;2023-03-21T23:06:15;98496.47;;;12.97;57.75
19576;BME280;41589;51.196;7.074;2023-03-21T23:11:15;98501.56;;;12.93;57.64
19576;BME280;41589;51.196;7.074;2023-03-21T23:16:15;98504.66;;;12.95;57.57
19576;BME280;41589;51.196;7.074;2023-03-21T23:21:16;98494.44;;;12.97;57.90
19576;BME280;41589;51.196;7.074;2023-03-21T23:26:21;98503.47;;;13.01;57.42
19576;BME280;41589;51.196;7.074;2023-03-21T23:31:24;98495.00;;;13.01;57.47
19576;BME280;41589;51.196;7.074;2023-03-21T23:36:25;98480.09;;;13.01;57.13
19576;BME280;41589;51.196;7.074;2023-03-21T23:41:25;98486.22;;;12.99;57.33
19576;BME280;41589;51.196;7.074;2023-03-21T23:46:26;98497.84;;;13.01;57.22
19576;BME280;41589;51.196;7.074;2023-03-21T23:51:26;98487.78;;;13.00;57.52
19576;BME280;41589;51.196;7.074;2023-03-21T23:56:27;98487.78;;;13.00;57.07
